createdAt,value
2022-10-28T00:01:26.975Z,90.94
2022-10-28T00:03:58.167Z,91.28
2022-10-28T00:06:30.146Z,91.44
2022-10-28T00:08:59.975Z,92.37
2022-10-28T00:11:30.962Z,92.90
2022-10-28T00:14:02.705Z,93.37
2022-10-28T00:16:33.417Z,93.02
2022-10-28T00:19:02.773Z,92.79
2022-10-28T00:21:36.620Z,93.04
2022-10-28T00:24:07.633Z,93.22
2022-10-28T00:26:37.968Z,93.28
2022-10-28T00:29:09.283Z,92.87
2022-10-28T00:31:38.950Z,93.02
2022-10-28T00:34:12.517Z,93.56
2022-10-28T00:36:43.037Z,93.76
2022-10-28T00:39:15.498Z,93.60
2022-10-28T00:41:46.764Z,93.81
2022-10-28T00:44:53.308Z,93.92
2022-10-28T00:47:37.489Z,94.38
2022-10-28T00:50:33.910Z,94.52
2022-10-28T00:53:07.903Z,94.33
2022-10-28T00:55:38.148Z,94.23
2022-10-28T00:58:09.065Z,94.16
2022-10-28T01:00:37.518Z,93.93
2022-10-28T01:03:05.941Z,93.92
2022-10-28T01:05:38.847Z,94.21
2022-10-28T01:08:07.778Z,94.14
2022-10-28T01:11:17.869Z,94.61
2022-10-28T01:14:13.596Z,94.65
2022-10-28T01:16:54.619Z,94.50
2022-10-28T01:20:00.486Z,94.20
2022-10-28T01:22:35.093Z,94.07
2022-10-28T01:25:54.206Z,93.95
2022-10-28T01:29:10.955Z,93.67
2022-10-28T01:31:45.346Z,93.65
2022-10-28T01:34:24.678Z,93.55
2022-10-28T01:37:00.040Z,93.53
2022-10-28T01:39:37.739Z,93.50
2022-10-28T01:42:16.447Z,93.15
2022-10-28T01:44:54.009Z,93.32
2022-10-28T01:47:27.746Z,93.31
2022-10-28T01:50:00.941Z,92.85
2022-10-28T01:52:32.317Z,92.49
2022-10-28T01:55:07.327Z,92.51
2022-10-28T01:57:39.009Z,92.60
2022-10-28T02:00:09.385Z,92.48
2022-10-28T02:02:42.736Z,92.30
2022-10-28T02:05:38.004Z,91.98
2022-10-28T02:08:22.831Z,91.37
2022-10-28T02:11:06.415Z,90.97
2022-10-28T02:13:53.024Z,90.64
2022-10-28T02:16:31.127Z,90.82
2022-10-28T02:19:10.495Z,90.69
2022-10-28T02:21:48.979Z,90.50
2022-10-28T02:24:23.731Z,90.79
2022-10-28T02:26:58.099Z,90.96
2022-10-28T02:29:34.429Z,90.45
2022-10-28T02:32:08.359Z,90.31
2022-10-28T02:34:43.570Z,90.09
2022-10-28T02:37:18.531Z,89.73
2022-10-28T02:39:53.815Z,89.63
2022-10-28T02:42:26.245Z,89.40
2022-10-28T02:45:00.689Z,89.08
2022-10-28T02:47:33.756Z,89.07
2022-10-28T02:50:09.938Z,88.83
2022-10-28T02:52:38.815Z,88.81
2022-10-28T02:55:08.453Z,89.32
2022-10-28T02:57:41.736Z,89.72
2022-10-28T03:00:15.328Z,89.56
2022-10-28T03:02:43.636Z,89.82
2022-10-28T03:05:14.257Z,89.65
2022-10-28T03:07:42.513Z,89.88
2022-10-28T03:10:11.667Z,89.83
2022-10-28T03:12:40.176Z,89.69
2022-10-28T03:15:09.820Z,89.56
2022-10-28T03:17:38.088Z,89.17
2022-10-28T03:20:07.814Z,88.97
2022-10-28T03:22:37.461Z,89.13
2022-10-28T03:25:06.697Z,89.41
2022-10-28T03:27:34.888Z,89.18
2022-10-28T03:30:03.245Z,89.26
2022-10-28T03:32:31.437Z,89.11
2022-10-28T03:34:59.699Z,88.95
2022-10-28T03:37:28.041Z,89.08
2022-10-28T03:39:57.647Z,88.78
2022-10-28T03:42:25.980Z,89.02
2022-10-28T03:44:54.315Z,89.02
2022-10-28T03:47:22.482Z,89.08
2022-10-28T03:49:50.705Z,88.94
2022-10-28T03:52:18.987Z,88.71
2022-10-28T03:54:47.356Z,88.74
2022-10-28T03:57:16.902Z,89.15
2022-10-28T03:59:45.143Z,89.77
2022-10-28T04:02:15.617Z,89.71
2022-10-28T04:04:43.889Z,89.26
2022-10-28T04:07:13.248Z,89.07
2022-10-28T04:09:42.793Z,88.67
2022-10-28T04:12:12.601Z,88.38
2022-10-28T04:14:42.214Z,88.04
2022-10-28T04:17:10.446Z,88.04
2022-10-28T04:19:38.727Z,88.31
2022-10-28T04:22:07.994Z,88.30
2022-10-28T04:24:36.324Z,87.94
2022-10-28T04:27:04.581Z,88.20
2022-10-28T04:29:34.325Z,88.72
2022-10-28T04:32:04.155Z,88.91
2022-10-28T04:34:32.448Z,88.79
2022-10-28T04:37:00.673Z,88.81
2022-10-28T04:39:28.931Z,88.62
2022-10-28T04:41:57.125Z,88.07
2022-10-28T04:44:25.426Z,87.97
2022-10-28T04:46:53.655Z,87.54
2022-10-28T04:49:23.373Z,87.81
2022-10-28T04:51:51.646Z,87.93
2022-10-28T04:54:19.918Z,88.42
2022-10-28T04:56:48.201Z,88.65
2022-10-28T04:59:17.363Z,88.79
2022-10-28T05:01:45.679Z,88.72
2022-10-28T05:04:14.095Z,88.98
2022-10-28T05:06:43.766Z,89.92
2022-10-28T05:09:12.141Z,90.74
2022-10-28T05:11:40.458Z,90.72
2022-10-28T05:14:08.795Z,90.45
2022-10-28T05:16:37.058Z,90.03
2022-10-28T05:19:05.323Z,89.82
2022-10-28T05:21:33.475Z,89.61
2022-10-28T05:24:03.376Z,89.47
2022-10-28T05:26:31.575Z,88.95
2022-10-28T05:28:59.790Z,89.65
2022-10-28T05:31:27.993Z,90.33
2022-10-28T05:33:56.632Z,91.18
2022-10-28T05:36:24.830Z,90.99
2022-10-28T05:38:53.113Z,90.68
2022-10-28T05:41:23.420Z,90.86
2022-10-28T05:43:52.921Z,90.38
2022-10-28T05:46:22.271Z,89.61
2022-10-28T05:48:50.831Z,89.53
2022-10-28T05:51:19.022Z,89.77
2022-10-28T05:53:47.302Z,90.51
2022-10-28T05:56:15.528Z,90.82
2022-10-28T05:58:45.230Z,90.51
2022-10-28T06:01:13.681Z,90.39
2022-10-28T06:03:41.945Z,91.09
2022-10-28T06:06:10.251Z,91.41
2022-10-28T06:08:38.462Z,91.40
2022-10-28T06:11:05.754Z,91.54
2022-10-28T06:13:34.074Z,91.59
2022-10-28T06:16:04.151Z,91.82
2022-10-28T06:18:32.562Z,92.51
2022-10-28T06:21:00.783Z,92.71
2022-10-28T06:23:29.030Z,94.11
2022-10-28T06:25:58.424Z,94.19
2022-10-28T06:28:27.198Z,95.11
2022-10-28T06:31:02.752Z,95.10
2022-10-28T06:33:31.548Z,95.63
2022-10-28T06:36:00.306Z,96.09
2022-10-28T06:38:29.596Z,96.09
2022-10-28T06:40:58.780Z,96.14
2022-10-28T06:43:27.223Z,95.62
2022-10-28T06:45:56.057Z,95.09
2022-10-28T06:48:27.257Z,94.93
2022-10-28T06:50:57.659Z,94.75
2022-10-28T06:53:26.429Z,94.50
2022-10-28T06:55:55.457Z,94.63
2022-10-28T06:58:24.367Z,94.58
2022-10-28T07:00:53.285Z,94.47
2022-10-28T07:03:21.764Z,94.28
2022-10-28T07:05:51.891Z,94.17
2022-10-28T07:08:20.475Z,93.43
2022-10-28T07:10:56.356Z,93.02
2022-10-28T07:13:24.967Z,92.60
2022-10-28T07:15:54.031Z,92.23
2022-10-28T07:18:23.058Z,92.37
2022-10-28T07:20:52.672Z,92.24
2022-10-28T07:23:21.422Z,92.28
2022-10-28T07:28:28.814Z,92.55
2022-10-28T07:31:01.666Z,92.14
2022-10-28T07:33:30.162Z,92.29
2022-10-28T07:35:59.820Z,92.27
2022-10-28T07:38:28.198Z,92.36
2022-10-28T07:40:56.469Z,92.04
2022-10-28T07:43:24.970Z,91.95
2022-10-28T07:45:57.695Z,91.52
2022-10-28T07:48:26.283Z,91.06
2022-10-28T07:50:54.523Z,90.50
2022-10-28T07:53:27.721Z,89.95
2022-10-28T07:55:58.187Z,89.30
2022-10-28T07:58:26.952Z,88.89
2022-10-28T08:00:55.475Z,88.17
2022-10-28T08:03:31.207Z,87.57
2022-10-28T08:06:10.558Z,86.83
2022-10-28T08:08:41.206Z,86.21
2022-10-28T08:11:13.141Z,85.95
2022-10-28T08:13:41.607Z,85.97
2022-10-28T08:16:10.710Z,86.01
2022-10-28T08:18:40.355Z,85.55
2022-10-28T08:21:11.346Z,85.47
2022-10-28T08:23:41.827Z,85.34
2022-10-28T08:26:10.363Z,85.07
2022-10-28T08:28:38.694Z,84.20
2022-10-28T08:31:10.257Z,84.03
2022-10-28T08:33:40.255Z,83.88
2022-10-28T08:36:11.318Z,83.80
2022-10-28T08:38:45.285Z,83.51
2022-10-28T08:41:29.657Z,84.05
2022-10-28T08:44:35.886Z,84.18
2022-10-28T08:47:18.119Z,84.29
2022-10-28T08:49:51.303Z,84.20
2022-10-28T08:52:29.605Z,84.46
2022-10-28T08:55:04.140Z,83.60
2022-10-28T08:57:45.156Z,83.75
2022-10-28T09:00:23.299Z,83.07
2022-10-28T09:03:13.312Z,82.45
2022-10-28T09:05:44.264Z,81.75
2022-10-28T09:08:24.470Z,81.07
2022-10-28T09:11:17.310Z,79.94
2022-10-28T09:14:09.180Z,79.26
2022-10-28T09:16:47.055Z,77.78
2022-10-28T09:19:39.368Z,77.07
2022-10-28T09:22:25.642Z,76.73
2022-10-28T09:24:57.507Z,76.52
2022-10-28T09:27:59.596Z,75.44
2022-10-28T09:30:45.553Z,74.32
2022-10-28T09:33:35.712Z,74.08
2022-10-28T09:36:06.966Z,73.54
2022-10-28T09:38:38.442Z,73.83
2022-10-28T09:41:15.629Z,74.63
2022-10-28T09:43:51.458Z,73.57
2022-10-28T09:46:20.449Z,73.26
2022-10-28T09:48:51.442Z,72.86
2022-10-28T09:51:32.133Z,72.38
2022-10-28T09:54:01.578Z,72.70
2022-10-28T09:56:31.585Z,72.41
2022-10-28T09:59:03.759Z,72.37
2022-10-28T10:01:35.719Z,72.44
2022-10-28T10:04:16.462Z,71.22
2022-10-28T10:06:46.742Z,71.19
2022-10-28T10:09:21.625Z,70.74
2022-10-28T10:11:51.550Z,70.97
2022-10-28T10:14:27.072Z,71.25
2022-10-28T10:16:58.673Z,71.24
2022-10-28T10:19:27.172Z,70.92
2022-10-28T10:21:56.515Z,70.91
2022-10-28T10:24:30.252Z,70.68
2022-10-28T10:27:01.938Z,71.05
2022-10-28T10:29:32.827Z,71.05
2022-10-28T10:32:19.474Z,71.38
2022-10-28T10:34:58.035Z,70.62
2022-10-28T10:37:26.446Z,70.51
2022-10-28T10:40:22.574Z,70.53
2022-10-28T10:43:13.049Z,70.39
2022-10-28T10:45:41.327Z,70.61
2022-10-28T10:48:15.212Z,71.07
2022-10-28T10:50:45.628Z,70.76
2022-10-28T10:53:27.143Z,71.18
2022-10-28T10:56:00.569Z,70.76
2022-10-28T10:58:33.264Z,71.53
2022-10-28T11:01:07.459Z,71.39
2022-10-28T11:03:39.608Z,71.39
2022-10-28T11:06:22.985Z,71.80
2022-10-28T11:08:58.816Z,71.46
2022-10-28T11:11:35.336Z,72.11
2022-10-28T11:14:08.362Z,72.13
2022-10-28T11:16:49.258Z,72.16
2022-10-28T11:19:25.519Z,72.34
2022-10-28T11:22:14.017Z,72.26
2022-10-28T11:25:24.101Z,72.33
2022-10-28T11:28:09.943Z,72.34
2022-10-28T11:30:54.784Z,72.34
2022-10-28T11:33:34.805Z,72.25
2022-10-28T11:36:19.972Z,71.93
2022-10-28T11:39:14.124Z,72.62
2022-10-28T11:41:58.371Z,72.83
2022-10-28T11:44:42.888Z,72.38
2022-10-28T11:47:31.654Z,72.25
2022-10-28T11:50:36.611Z,71.95
2022-10-28T11:53:54.127Z,72.26
2022-10-28T11:56:35.806Z,72.68
2022-10-28T11:59:31.366Z,72.57
2022-10-28T12:02:14.509Z,72.53
2022-10-28T12:04:59.799Z,72.39
2022-10-28T12:08:12.692Z,72.59
2022-10-28T12:10:55.686Z,71.91
2022-10-28T12:13:34.835Z,72.36
2022-10-28T12:16:13.905Z,71.75
2022-10-28T12:18:52.528Z,70.88
2022-10-28T12:21:29.657Z,70.51
2022-10-28T12:24:00.936Z,70.20
2022-10-28T12:26:39.786Z,70.21
2022-10-28T12:29:17.463Z,70.55
2022-10-28T12:31:50.304Z,70.40
2022-10-28T12:34:27.179Z,69.89
2022-10-28T12:37:01.658Z,70.31
2022-10-28T12:39:36.026Z,69.92
2022-10-28T12:42:12.477Z,69.85
2022-10-28T12:44:41.807Z,69.89
2022-10-28T12:47:21.239Z,70.03
2022-10-28T12:50:01.340Z,69.85
2022-10-28T12:52:41.183Z,70.23
2022-10-28T12:55:25.476Z,69.90
2022-10-28T12:58:02.512Z,69.84
2022-10-28T13:00:36.752Z,70.18
2022-10-28T13:03:08.405Z,70.22
2022-10-28T13:05:43.382Z,70.01
2022-10-28T13:08:42.814Z,69.80
2022-10-28T13:11:56.921Z,69.65
2022-10-28T13:14:47.714Z,69.85
2022-10-28T13:17:28.582Z,70.02
2022-10-28T13:20:04.755Z,70.15
2022-10-28T13:23:05.266Z,69.98
2022-10-28T13:25:58.905Z,70.49
2022-10-28T13:28:34.444Z,70.34
2022-10-28T13:31:06.314Z,70.80
2022-10-28T13:33:38.534Z,71.43
2022-10-28T13:36:17.902Z,71.51
2022-10-28T13:38:54.302Z,71.39
2022-10-28T13:41:42.242Z,71.55
2022-10-28T13:44:29.052Z,71.57
2022-10-28T13:47:27.132Z,71.47
2022-10-28T13:50:35.098Z,71.40
2022-10-28T13:53:53.202Z,71.79
2022-10-28T13:56:47.872Z,72.23
2022-10-28T13:59:31.705Z,72.55
2022-10-28T14:02:35.645Z,72.69
2022-10-28T14:05:08.263Z,72.96
2022-10-28T14:07:38.369Z,73.42
2022-10-28T14:10:24.282Z,73.20
2022-10-28T14:12:56.649Z,73.51
2022-10-28T14:15:30.477Z,73.22
2022-10-28T14:18:22.717Z,73.13
2022-10-28T14:21:01.524Z,73.55
2022-10-28T14:24:08.782Z,74.02
2022-10-28T14:27:32.782Z,74.18
2022-10-28T14:30:22.988Z,74.18
2022-10-28T14:33:21.541Z,74.43
2022-10-28T14:36:00.977Z,74.71
2022-10-28T14:39:13.020Z,74.84
2022-10-28T14:42:01.503Z,74.90
2022-10-28T14:44:51.517Z,75.21
2022-10-28T14:47:41.043Z,75.36
2022-10-28T14:50:20.848Z,75.67
2022-10-28T14:52:51.299Z,75.72
2022-10-28T14:55:26.625Z,75.72
2022-10-28T14:57:55.383Z,76.31
2022-10-28T15:00:28.940Z,76.45
2022-10-28T15:02:57.317Z,76.80
2022-10-28T15:05:32.306Z,76.94
2022-10-28T15:08:04.680Z,77.46
2022-10-28T15:10:35.131Z,77.54
2022-10-28T15:13:04.638Z,77.71
2022-10-28T15:15:35.805Z,78.34
2022-10-28T15:18:22.138Z,78.39
2022-10-28T15:21:08.779Z,78.55
2022-10-28T15:23:37.057Z,78.81
2022-10-28T15:26:09.504Z,79.28
2022-10-28T15:28:38.312Z,79.59
2022-10-28T15:31:07.155Z,79.92
2022-10-28T15:33:40.580Z,79.88
2022-10-28T15:36:18.289Z,80.22
2022-10-28T15:38:47.908Z,80.16
2022-10-28T15:41:49.321Z,79.98
2022-10-28T15:44:35.718Z,80.01
2022-10-28T15:47:21.171Z,79.76
2022-10-28T15:50:05.003Z,79.74
2022-10-28T15:52:41.439Z,79.50
2022-10-28T15:56:02.279Z,79.19
2022-10-28T15:58:37.185Z,79.16
2022-10-28T16:01:11.554Z,79.09
2022-10-28T16:03:46.095Z,78.73
2022-10-28T16:06:25.051Z,78.28
2022-10-28T16:09:07.907Z,78.03
2022-10-28T16:11:39.373Z,77.86
2022-10-28T16:14:32.435Z,77.54
2022-10-28T16:17:13.693Z,77.20
2022-10-28T16:19:47.638Z,77.20
2022-10-28T16:22:18.416Z,76.64
2022-10-28T16:24:48.183Z,76.71
2022-10-28T16:27:22.204Z,76.52
2022-10-28T16:29:51.073Z,76.36
2022-10-28T16:32:29.529Z,76.32
2022-10-28T16:34:59.673Z,76.21
2022-10-28T16:37:30.873Z,76.06
2022-10-28T16:40:00.532Z,75.78
2022-10-28T16:42:29.124Z,75.70
2022-10-28T16:44:57.387Z,75.96
2022-10-28T16:47:26.836Z,76.18
2022-10-28T16:49:57.339Z,76.43
2022-10-28T16:52:29.396Z,76.85
2022-10-28T16:55:00.223Z,76.81
2022-10-28T16:57:28.920Z,77.19
2022-10-28T16:59:57.246Z,77.49
2022-10-28T17:02:29.255Z,77.66
2022-10-28T17:04:58.166Z,77.74
2022-10-28T17:07:27.202Z,77.81
2022-10-28T17:09:57.004Z,77.93
2022-10-28T17:12:28.574Z,78.13
2022-10-28T17:14:56.940Z,78.20
2022-10-28T17:17:25.161Z,78.39
2022-10-28T17:19:53.418Z,78.73
2022-10-28T17:22:21.791Z,78.79
2022-10-28T17:24:50.253Z,78.87
2022-10-28T17:27:19.211Z,79.20
2022-10-28T17:29:49.070Z,79.28
2022-10-28T17:32:17.719Z,79.76
2022-10-28T17:34:46.131Z,79.78
2022-10-28T17:37:14.575Z,79.82
2022-10-28T17:39:43.236Z,80.09
2022-10-28T17:42:11.556Z,80.18
2022-10-28T17:44:39.939Z,80.25
2022-10-28T17:47:09.583Z,80.22
2022-10-28T17:49:37.852Z,80.18
2022-10-28T17:52:06.348Z,80.33
2022-10-28T17:54:34.634Z,80.24
2022-10-28T17:57:02.854Z,80.50
2022-10-28T17:59:31.314Z,80.39
2022-10-28T18:01:59.719Z,80.84
2022-10-28T18:04:30.407Z,81.02
2022-10-28T18:06:59.132Z,81.03
2022-10-28T18:09:31.641Z,81.01
2022-10-28T18:12:01.042Z,81.06
2022-10-28T18:14:29.354Z,81.14
2022-10-28T18:16:58.058Z,80.95
2022-10-28T18:19:26.533Z,81.18
2022-10-28T18:21:56.194Z,81.08
2022-10-28T18:24:26.106Z,80.96
2022-10-28T18:26:57.080Z,81.18
2022-10-28T18:29:25.613Z,81.05
2022-10-28T18:31:53.906Z,80.98
2022-10-28T18:34:23.844Z,81.12
2022-10-28T18:36:52.792Z,81.24
2022-10-28T18:39:22.361Z,81.44
2022-10-28T18:41:51.560Z,81.31
2022-10-28T18:44:24.127Z,81.16
2022-10-28T18:46:52.491Z,81.27
2022-10-28T18:49:20.754Z,81.12
2022-10-28T18:51:49.054Z,80.84
2022-10-28T18:54:17.511Z,80.69
2022-10-28T18:56:48.257Z,80.70
2022-10-28T18:59:17.434Z,80.63
2022-10-28T19:01:47.001Z,80.51
2022-10-28T19:04:15.871Z,80.61
2022-10-28T19:06:44.454Z,80.73
2022-10-28T19:09:12.686Z,80.65
2022-10-28T19:11:40.912Z,80.65
2022-10-28T19:14:11.328Z,80.69
2022-10-28T19:16:39.580Z,80.91
2022-10-28T19:19:08.505Z,81.14
2022-10-28T19:21:36.791Z,81.40
2022-10-28T19:24:05.508Z,81.20
2022-10-28T19:26:34.873Z,81.71
2022-10-28T19:29:05.074Z,81.61
2022-10-28T19:31:38.718Z,81.45
2022-10-28T19:34:07.037Z,81.39
2022-10-28T19:36:35.472Z,81.33
2022-10-28T19:39:04.636Z,81.32
2022-10-28T19:41:32.957Z,81.36
2022-10-28T19:44:02.974Z,81.15
2022-10-28T19:46:35.208Z,81.34
2022-10-28T19:49:06.778Z,81.34
2022-10-28T19:51:37.696Z,81.47
2022-10-28T19:54:10.322Z,81.38
2022-10-28T19:56:40.224Z,81.33
2022-10-28T19:59:08.978Z,81.18
2022-10-28T20:01:40.318Z,80.99
2022-10-28T20:04:10.123Z,81.05
2022-10-28T20:06:40.981Z,81.21
2022-10-28T20:09:09.823Z,81.36
2022-10-28T20:11:39.660Z,81.59
2022-10-28T20:14:11.797Z,81.47
2022-10-28T20:16:43.656Z,81.62
2022-10-28T20:19:12.237Z,82.08
2022-10-28T20:21:40.635Z,82.13
2022-10-28T20:24:09.572Z,82.21
2022-10-28T20:26:39.614Z,82.12
2022-10-28T20:29:09.727Z,82.36
2022-10-28T20:31:38.981Z,82.40
2022-10-28T20:34:09.641Z,82.65
2022-10-28T20:36:39.614Z,82.96
2022-10-28T20:39:10.765Z,83.13
2022-10-28T20:41:40.591Z,83.06
2022-10-28T20:44:09.598Z,83.26
2022-10-28T20:46:37.964Z,83.55
2022-10-28T20:49:14.590Z,83.75
2022-10-28T20:51:43.634Z,84.10
2022-10-28T20:54:11.867Z,83.98
2022-10-28T20:56:42.191Z,84.12
2022-10-28T20:59:10.664Z,84.03
2022-10-28T21:01:41.698Z,84.04
2022-10-28T21:04:13.138Z,83.93
2022-10-28T21:06:41.416Z,83.53
2022-10-28T21:09:11.679Z,83.52
2022-10-28T21:11:40.113Z,84.02
2022-10-28T21:14:08.640Z,84.23
2022-10-28T21:16:37.107Z,84.27
2022-10-28T21:19:05.548Z,84.58
2022-10-28T21:21:35.208Z,84.77
2022-10-28T21:24:03.750Z,84.96
2022-10-28T21:26:32.023Z,84.96
2022-10-28T21:29:00.309Z,85.01
2022-10-28T21:31:28.531Z,84.78
2022-10-28T21:33:56.908Z,84.88
2022-10-28T21:36:25.204Z,84.53
2022-10-28T21:38:57.959Z,84.45
2022-10-28T21:41:26.399Z,84.91
2022-10-28T21:43:55.533Z,85.26
2022-10-28T21:46:25.387Z,85.47
2022-10-28T21:48:54.494Z,85.51
2022-10-28T21:51:22.771Z,86.11
2022-10-28T21:53:50.992Z,85.99
2022-10-28T21:56:22.900Z,85.99
2022-10-28T21:58:52.355Z,85.98
2022-10-28T22:01:23.472Z,85.35
2022-10-28T22:03:52.847Z,85.44
2022-10-28T22:06:21.301Z,85.41
2022-10-28T22:08:49.709Z,85.35
2022-10-28T22:11:21.569Z,85.48
2022-10-28T22:13:57.307Z,85.61
2022-10-28T22:16:26.759Z,85.89
2022-10-28T22:18:55.275Z,86.17
2022-10-28T22:21:25.425Z,86.16
2022-10-28T22:23:54.463Z,86.39
2022-10-28T22:26:26.657Z,86.65
2022-10-28T22:28:55.357Z,86.73
2022-10-28T22:31:26.065Z,86.83
2022-10-28T22:33:54.606Z,86.87
2022-10-28T22:36:24.958Z,86.69
2022-10-28T22:38:53.940Z,86.76
2022-10-28T22:41:25.726Z,86.85
2022-10-28T22:43:55.978Z,86.44
2022-10-28T22:46:27.045Z,86.32
2022-10-28T22:48:56.006Z,86.51
2022-10-28T22:51:24.687Z,86.55
2022-10-28T22:53:53.111Z,86.74
2022-10-28T22:56:25.405Z,87.10
2022-10-28T22:58:56.245Z,87.30
2022-10-28T23:01:26.118Z,87.29
2022-10-28T23:03:55.413Z,87.30
2022-10-28T23:06:26.075Z,87.37
2022-10-28T23:08:54.331Z,87.66
2022-10-28T23:11:24.584Z,87.74
2022-10-28T23:13:54.243Z,87.66
2022-10-28T23:16:24.969Z,87.46
2022-10-28T23:18:53.890Z,87.49
2022-10-28T23:21:24.527Z,87.51
2022-10-28T23:23:56.366Z,88.07
2022-10-28T23:26:26.883Z,88.01
2022-10-28T23:28:57.136Z,88.06
2022-10-28T23:31:25.953Z,88.09
2022-10-28T23:33:55.209Z,88.01
2022-10-28T23:36:24.127Z,87.95
2022-10-28T23:38:53.885Z,88.11
2022-10-28T23:41:22.254Z,88.15
2022-10-28T23:43:51.816Z,88.09
2022-10-28T23:46:21.117Z,88.16
2022-10-28T23:48:49.406Z,88.16
2022-10-28T23:51:19.229Z,88.16
2022-10-28T23:53:47.580Z,88.21
2022-10-28T23:56:15.847Z,87.91
2022-10-28T23:58:44.112Z,89.28
